createdAt,value
2018-06-17T00:00:35.281Z,21.00
2018-06-17T00:03:05.792Z,21.00
2018-06-17T00:05:36.330Z,21.00
2018-06-17T00:08:06.863Z,21.00
2018-06-17T00:10:37.378Z,21.00
2018-06-17T00:13:08.063Z,21.00
2018-06-17T00:15:38.476Z,21.00
2018-06-17T00:18:08.836Z,20.90
2018-06-17T00:20:39.278Z,21.00
2018-06-17T00:23:09.695Z,21.00
2018-06-17T00:25:40.221Z,21.00
2018-06-17T00:28:10.606Z,21.00
2018-06-17T00:30:40.989Z,21.00
2018-06-17T00:33:11.408Z,21.00
2018-06-17T00:35:41.785Z,20.90
2018-06-17T00:38:12.220Z,20.90
2018-06-17T00:40:43.362Z,21.00
2018-06-17T00:43:13.798Z,21.00
2018-06-17T00:45:44.181Z,21.00
2018-06-17T00:48:14.616Z,20.90
2018-06-17T00:50:45.001Z,20.90
2018-06-17T00:53:16.397Z,21.00
2018-06-17T00:55:46.828Z,20.90
2018-06-17T00:58:17.341Z,20.90
2018-06-17T01:00:47.796Z,20.90
2018-06-17T01:03:18.289Z,20.90
2018-06-17T01:05:48.787Z,20.90
2018-06-17T01:08:19.289Z,20.90
2018-06-17T01:10:49.664Z,20.70
2018-06-17T01:13:20.051Z,20.70
2018-06-17T01:15:51.050Z,20.70
2018-06-17T01:18:21.480Z,20.70
2018-06-17T01:20:51.902Z,20.70
2018-06-17T01:23:22.318Z,20.80
2018-06-17T01:25:52.761Z,20.80
2018-06-17T01:28:23.294Z,20.80
2018-06-17T01:30:53.750Z,20.80
2018-06-17T01:33:25.061Z,20.90
2018-06-17T01:35:55.605Z,20.90
2018-06-17T01:38:26.008Z,20.80
2018-06-17T01:40:56.832Z,20.80
2018-06-17T01:43:27.297Z,20.70
2018-06-17T01:45:57.706Z,20.70
2018-06-17T01:48:28.147Z,20.80
2018-06-17T01:50:58.631Z,20.70
2018-06-17T01:53:29.023Z,20.80
2018-06-17T01:55:59.530Z,20.80
2018-06-17T01:58:30.038Z,20.80
2018-06-17T02:01:00.529Z,20.80
2018-06-17T02:03:36.257Z,20.80
2018-06-17T02:06:11.925Z,20.80
2018-06-17T02:08:47.521Z,20.90
2018-06-17T02:12:26.037Z,20.80
2018-06-17T02:15:00.523Z,20.90
2018-06-17T02:17:30.954Z,20.90
2018-06-17T02:20:01.346Z,20.90
2018-06-17T02:22:31.737Z,20.90
2018-06-17T02:25:02.087Z,20.90
2018-06-17T02:27:32.547Z,20.90
2018-06-17T02:30:03.427Z,20.80
2018-06-17T02:32:34.342Z,20.80
2018-06-17T02:35:04.852Z,20.70
2018-06-17T02:37:35.817Z,20.70
2018-06-17T02:40:06.270Z,20.60
2018-06-17T02:42:36.719Z,20.60
2018-06-17T02:45:12.433Z,20.70
2018-06-17T02:47:47.824Z,20.70
2018-06-17T02:50:23.406Z,20.70
2018-06-17T02:52:58.952Z,20.70
2018-06-17T02:55:29.373Z,20.70
2018-06-17T02:57:59.763Z,20.80
2018-06-17T03:00:30.245Z,20.80
2018-06-17T03:03:00.741Z,20.80
2018-06-17T03:08:01.254Z,20.80
2018-06-17T03:10:31.651Z,20.70
2018-06-17T03:13:02.164Z,20.70
2018-06-17T03:15:32.669Z,20.80
2018-06-17T03:18:04.236Z,20.80
2018-06-17T03:20:34.693Z,20.80
2018-06-17T03:23:05.264Z,20.80
2018-06-17T03:25:40.708Z,20.80
2018-06-17T03:28:16.884Z,20.80
2018-06-17T03:30:52.723Z,20.80
2018-06-17T03:33:28.426Z,20.80
2018-06-17T03:36:04.076Z,20.80
2018-06-17T03:38:34.568Z,20.80
2018-06-17T03:41:04.977Z,20.80
2018-06-17T03:43:35.357Z,20.70
2018-06-17T03:46:06.337Z,20.80
2018-06-17T03:48:36.705Z,20.60
2018-06-17T03:51:07.196Z,20.60
2018-06-17T03:53:37.673Z,20.60
2018-06-17T03:56:08.173Z,20.60
2018-06-17T03:58:38.701Z,20.50
2018-06-17T04:01:09.173Z,20.40
2018-06-17T04:03:39.629Z,20.40
2018-06-17T04:06:10.050Z,20.40
2018-06-17T04:08:41.438Z,20.40
2018-06-17T04:11:11.874Z,20.40
2018-06-17T04:13:42.319Z,20.40
2018-06-17T04:16:12.698Z,20.40
2018-06-17T04:18:43.104Z,20.40
2018-06-17T04:21:13.492Z,20.40
2018-06-17T04:23:43.959Z,20.50
2018-06-17T04:26:14.441Z,20.50
2018-06-17T04:28:44.906Z,20.50
2018-06-17T04:31:15.329Z,20.50
2018-06-17T04:33:45.829Z,20.50
2018-06-17T04:36:16.231Z,20.50
2018-06-17T04:38:46.657Z,20.50
2018-06-17T04:41:17.124Z,20.50
2018-06-17T04:43:47.558Z,20.60
2018-06-17T04:46:17.971Z,20.60
2018-06-17T04:48:48.394Z,20.60
2018-06-17T04:51:18.864Z,20.50
2018-06-17T04:53:49.291Z,20.50
2018-06-17T04:56:19.679Z,20.60
2018-06-17T04:58:50.857Z,20.50
2018-06-17T05:01:21.271Z,20.50
2018-06-17T05:03:51.712Z,20.40
2018-06-17T05:06:22.179Z,20.40
2018-06-17T05:08:52.504Z,20.40
2018-06-17T05:11:23.024Z,20.40
2018-06-17T05:13:53.478Z,20.20
2018-06-17T05:16:23.954Z,20.20
2018-06-17T05:18:54.415Z,20.20
2018-06-17T05:21:24.882Z,20.20
2018-06-17T05:23:55.355Z,20.30
2018-06-17T05:26:25.786Z,20.30
2018-06-17T05:28:56.168Z,20.30
2018-06-17T05:31:26.610Z,20.30
2018-06-17T05:33:57.034Z,20.30
2018-06-17T05:36:27.423Z,20.30
2018-06-17T05:38:57.939Z,20.30
2018-06-17T05:41:28.262Z,20.30
2018-06-17T05:43:58.621Z,20.20
2018-06-17T05:46:29.093Z,20.20
2018-06-17T05:48:59.565Z,20.10
2018-06-17T05:51:29.986Z,20.10
2018-06-17T05:54:00.424Z,20.10
2018-06-17T05:56:30.819Z,19.90
2018-06-17T05:59:01.288Z,19.90
2018-06-17T06:01:31.644Z,19.80
2018-06-17T06:04:02.620Z,19.70
2018-06-17T06:06:32.974Z,19.70
2018-06-17T06:09:03.889Z,19.70
2018-06-17T06:14:04.372Z,19.60
2018-06-17T06:16:34.800Z,19.70
2018-06-17T06:19:05.401Z,19.60
2018-06-17T06:21:35.848Z,19.60
2018-06-17T06:24:06.205Z,19.60
2018-06-17T06:26:36.674Z,19.60
2018-06-17T06:29:07.155Z,19.70
2018-06-17T06:31:37.942Z,19.80
2018-06-17T06:34:08.366Z,19.80
2018-06-17T06:36:52.048Z,19.80
2018-06-17T06:39:22.691Z,19.80
2018-06-17T06:41:53.702Z,19.90
2018-06-17T06:44:24.337Z,19.80
2018-06-17T06:46:54.812Z,19.80
2018-06-17T06:49:25.179Z,19.90
2018-06-17T06:51:55.557Z,20.00
2018-06-17T06:54:26.065Z,20.00
2018-06-17T06:56:57.379Z,20.10
2018-06-17T06:59:27.810Z,20.00
2018-06-17T07:02:16.232Z,19.90
2018-06-17T07:05:03.589Z,20.00
2018-06-17T07:07:51.261Z,20.10
2018-06-17T07:10:27.392Z,20.20
2018-06-17T07:12:57.842Z,20.40
2018-06-17T08:37:04.673Z,24.00
2018-06-17T08:39:35.113Z,24.50
2018-06-17T08:42:05.539Z,24.60
2018-06-17T08:44:35.780Z,24.60
2018-06-17T08:47:05.944Z,24.50
2018-06-17T08:49:41.544Z,24.40
2018-06-17T08:52:16.519Z,24.40
2018-06-17T08:54:47.215Z,24.50
2018-06-17T08:57:21.713Z,24.30
2018-06-17T08:59:51.793Z,24.30
2018-06-17T09:02:22.364Z,24.20
2018-06-17T09:04:52.710Z,24.20
2018-06-17T09:07:22.914Z,24.40
2018-06-17T09:09:53.026Z,24.30
2018-06-17T09:12:23.197Z,24.30
2018-06-17T09:14:53.296Z,24.20
2018-06-17T09:17:23.437Z,24.10
2018-06-17T09:58:41.877Z,25.10
2018-06-17T10:01:12.007Z,25.20
2018-06-17T10:03:42.255Z,25.40
2018-06-17T10:06:12.346Z,25.30
2018-06-17T10:08:42.504Z,25.50
2018-06-17T10:11:12.615Z,25.40
2018-06-17T10:13:44.910Z,25.30
2018-06-17T10:16:16.793Z,25.20
2018-06-17T10:18:47.358Z,25.20
2018-06-17T10:21:17.789Z,25.10
2018-06-17T10:23:48.360Z,25.20
2018-06-17T10:26:18.735Z,25.20
2018-06-17T10:28:49.170Z,25.10
2018-06-17T10:31:19.561Z,25.00
2018-06-17T10:33:50.044Z,25.00
2018-06-17T10:36:20.907Z,25.10
2018-06-17T10:38:51.372Z,25.20
2018-06-17T10:41:21.836Z,25.40
2018-06-17T10:43:52.299Z,25.70
2018-06-17T10:46:22.681Z,25.80
2018-06-17T10:48:53.238Z,25.90
2018-06-17T10:51:23.604Z,25.90
2018-06-17T10:53:54.033Z,25.90
2018-06-17T10:56:29.694Z,26.00
2018-06-17T10:59:00.645Z,25.70
2018-06-17T11:01:31.125Z,25.40
2018-06-17T11:04:01.612Z,25.10
2018-06-17T11:06:32.026Z,25.00
2018-06-17T11:09:02.458Z,25.10
2018-06-17T11:11:32.929Z,25.20
2018-06-17T11:14:03.398Z,25.40
2018-06-17T11:16:33.901Z,25.40
2018-06-17T11:19:04.383Z,25.50
2018-06-17T11:21:34.842Z,25.50
2018-06-17T11:24:05.482Z,25.60
2018-06-17T11:26:36.018Z,25.60
2018-06-17T11:29:06.509Z,25.50
2018-06-17T11:31:36.968Z,25.40
2018-06-17T11:34:07.825Z,25.30
2018-06-17T11:36:38.334Z,25.40
2018-06-17T11:39:10.308Z,25.50
2018-06-17T11:41:40.619Z,25.40
2018-06-17T11:44:11.036Z,25.20
2018-06-17T11:46:42.128Z,25.10
2018-06-17T11:49:13.357Z,25.00
2018-06-17T11:51:43.808Z,25.00
2018-06-17T11:54:14.267Z,24.80
2018-06-17T11:56:44.711Z,24.70
2018-06-17T11:59:15.080Z,24.50
2018-06-17T12:01:45.547Z,24.40
2018-06-17T12:04:16.181Z,24.30
2018-06-17T12:06:46.704Z,24.40
2018-06-17T12:09:17.117Z,24.60
2018-06-17T12:11:47.457Z,24.70
2018-06-17T12:14:17.862Z,24.70
2018-06-17T12:16:48.360Z,24.70
2018-06-17T12:19:18.874Z,24.90
2018-06-17T12:21:49.818Z,25.00
2018-06-17T12:24:20.290Z,25.00
2018-06-17T12:26:50.711Z,24.90
2018-06-17T12:29:21.164Z,25.00
2018-06-17T12:31:51.680Z,25.00
2018-06-17T12:34:22.115Z,24.90
2018-06-17T12:36:52.601Z,24.90
2018-06-17T12:39:23.104Z,24.90
2018-06-17T12:41:53.650Z,24.80
2018-06-17T12:44:24.126Z,24.70
2018-06-17T12:46:54.585Z,24.70
2018-06-17T12:49:24.957Z,24.70
2018-06-17T12:51:55.415Z,24.50
2018-06-17T12:54:25.914Z,24.40
2018-06-17T12:56:56.436Z,24.30
2018-06-17T12:59:26.849Z,24.30
2018-06-17T13:01:57.276Z,24.40
2018-06-17T13:04:27.748Z,24.40
2018-06-17T13:06:58.245Z,24.50
2018-06-17T13:09:28.822Z,24.70
2018-06-17T13:11:59.652Z,24.60
2018-06-17T13:14:31.952Z,24.70
2018-06-17T13:17:04.328Z,24.70
2018-06-17T13:19:35.493Z,24.60
2018-06-17T13:22:06.597Z,24.70
2018-06-17T13:24:37.173Z,24.70
2018-06-17T13:27:07.673Z,24.80
2018-06-17T13:29:38.061Z,24.90
2018-06-17T13:32:08.552Z,24.90
2018-06-17T13:34:39.047Z,25.00
2018-06-17T13:37:11.255Z,24.90
2018-06-17T13:39:41.755Z,25.00
2018-06-17T13:42:12.271Z,25.00
2018-06-17T13:44:42.674Z,25.00
2018-06-17T13:47:13.261Z,25.00
2018-06-17T13:49:43.782Z,25.00
2018-06-17T13:52:14.283Z,25.20
2018-06-17T13:54:44.661Z,25.20
2018-06-17T13:57:15.087Z,25.30
2018-06-17T13:59:45.480Z,25.30
2018-06-17T14:02:16.005Z,25.40
2018-06-17T14:04:46.383Z,25.40
2018-06-17T14:07:16.981Z,25.50
2018-06-17T14:09:47.385Z,25.50
2018-06-17T14:12:17.929Z,25.50
2018-06-17T14:14:48.489Z,25.30
2018-06-17T14:17:19.032Z,25.10
2018-06-17T14:19:49.901Z,24.90
2018-06-17T14:22:20.410Z,24.70
2018-06-17T14:24:51.036Z,24.80
2018-06-17T14:27:21.495Z,24.80
2018-06-17T14:29:52.426Z,24.70
2018-06-17T14:32:22.902Z,24.60
2018-06-17T14:34:53.352Z,24.60
2018-06-17T14:37:23.810Z,24.60
2018-06-17T14:39:54.527Z,24.60
2018-06-17T14:42:29.990Z,24.60
2018-06-17T14:45:05.729Z,24.70
2018-06-17T14:47:41.495Z,24.60
2018-06-17T14:50:17.316Z,24.40
2018-06-17T14:52:53.073Z,24.20
2018-06-17T14:55:23.603Z,24.10
2018-06-17T14:57:54.060Z,24.10
2018-06-17T15:00:25.199Z,24.10
2018-06-17T15:02:55.616Z,24.10
2018-06-17T15:05:26.089Z,24.10
2018-06-17T15:07:56.508Z,24.00
2018-06-17T15:10:26.876Z,24.00
2018-06-17T15:12:57.540Z,23.90
2018-06-17T15:15:28.020Z,23.90
2018-06-17T15:17:58.516Z,23.80
2018-06-17T15:20:28.940Z,23.80
2018-06-17T15:22:59.407Z,23.80
2018-06-17T15:25:29.996Z,23.70
2018-06-17T15:28:01.205Z,23.80
2018-06-17T15:30:31.689Z,23.90
2018-06-17T15:33:07.197Z,24.00
2018-06-17T15:35:42.804Z,24.00
2018-06-17T15:38:18.403Z,24.00
2018-06-17T15:40:53.979Z,23.80
2018-06-17T15:43:24.395Z,23.80
2018-06-17T15:45:54.833Z,23.60
2018-06-17T15:48:25.334Z,23.60
2018-06-17T15:50:55.840Z,23.50
2018-06-17T15:53:26.257Z,23.60
2018-06-17T15:55:56.708Z,23.60
2018-06-17T15:58:27.244Z,23.60
2018-06-17T16:00:57.712Z,23.60
2018-06-17T16:03:28.473Z,23.60
2018-06-17T16:05:59.028Z,23.60
2018-06-17T16:08:29.498Z,23.60
2018-06-17T16:10:59.937Z,23.70
2018-06-17T16:13:35.669Z,23.70
2018-06-17T16:18:13.765Z,23.70
2018-06-17T16:20:50.051Z,23.60
2018-06-17T16:23:20.508Z,23.50
2018-06-17T16:25:51.021Z,23.50
2018-06-17T16:28:21.504Z,23.50
2018-06-17T16:30:52.012Z,23.40
2018-06-17T16:33:22.364Z,23.40
2018-06-17T16:35:52.805Z,23.40
2018-06-17T16:38:23.673Z,23.40
2018-06-17T16:40:54.108Z,23.50
2018-06-17T16:43:24.661Z,23.50
2018-06-17T16:45:55.325Z,23.60
2018-06-17T16:48:25.722Z,23.60
2018-06-17T16:51:01.536Z,23.50
2018-06-17T16:53:37.249Z,23.60
2018-06-17T16:56:13.053Z,23.50
2018-06-17T16:58:48.768Z,23.40
2018-06-17T17:01:19.351Z,23.40
2018-06-17T17:03:49.800Z,23.40
2018-06-17T17:06:20.285Z,23.20
2018-06-17T17:08:51.310Z,23.20
2018-06-17T17:11:24.928Z,23.20
2018-06-17T17:13:55.491Z,23.20
2018-06-17T17:16:25.990Z,23.20
2018-06-17T17:18:56.380Z,23.20
2018-06-17T17:21:26.831Z,23.30
2018-06-17T17:23:57.237Z,23.40
2018-06-17T17:26:27.616Z,23.40
2018-06-17T17:28:58.149Z,23.50
2018-06-17T17:31:33.741Z,23.60
2018-06-17T17:34:09.574Z,23.50
2018-06-17T17:36:45.276Z,23.40
2018-06-17T17:39:20.758Z,23.40
2018-06-17T17:41:51.308Z,23.30
2018-06-17T17:44:21.799Z,23.30
2018-06-17T17:46:57.365Z,23.20
2018-06-17T17:49:27.813Z,23.20
2018-06-17T17:51:58.184Z,23.20
2018-06-17T17:54:28.607Z,23.20
2018-06-17T17:56:59.026Z,23.10
2018-06-17T17:59:29.602Z,23.10
2018-06-17T18:02:00.027Z,23.10
2018-06-17T18:04:30.429Z,23.00
2018-06-17T18:07:01.009Z,23.00
2018-06-17T18:09:31.775Z,23.00
2018-06-17T18:12:02.269Z,23.00
2018-06-17T18:14:32.684Z,23.00
2018-06-17T18:17:03.099Z,23.00
2018-06-17T18:19:33.565Z,23.10
2018-06-17T18:22:04.159Z,23.10
2018-06-17T18:24:34.546Z,23.00
2018-06-17T18:27:10.336Z,23.00
2018-06-17T18:29:46.047Z,22.90
2018-06-17T18:33:24.116Z,22.80
2018-06-17T18:36:00.090Z,22.70
2018-06-17T18:38:30.525Z,22.70
2018-06-17T18:41:01.222Z,22.60
2018-06-17T18:43:31.899Z,22.70
2018-06-17T18:46:02.376Z,22.60
2018-06-17T18:48:32.790Z,22.50
2018-06-17T18:51:03.136Z,22.40
2018-06-17T18:53:33.650Z,22.40
2018-06-17T18:56:04.240Z,22.40
2018-06-17T18:58:34.860Z,22.40
2018-06-17T19:01:05.388Z,22.40
2018-06-17T19:03:35.858Z,22.40
2018-06-17T19:06:06.295Z,22.40
2018-06-17T19:08:41.812Z,22.40
2018-06-17T19:11:17.503Z,22.30
2018-06-17T19:15:58.165Z,22.30
2018-06-17T19:18:28.746Z,22.30
2018-06-17T19:20:59.349Z,22.30
2018-06-17T19:23:29.836Z,22.20
2018-06-17T19:26:00.394Z,22.20
2018-06-17T19:28:30.811Z,22.10
2018-06-17T19:31:01.329Z,22.00
2018-06-17T19:33:31.846Z,22.00
2018-06-17T19:36:02.301Z,22.00
2018-06-17T19:38:32.768Z,21.90
2018-06-17T19:41:03.182Z,21.90
2018-06-17T19:43:33.682Z,22.00
2018-06-17T19:46:04.111Z,22.00
2018-06-17T19:48:34.575Z,22.00
2018-06-17T19:51:10.243Z,22.00
2018-06-17T19:53:45.804Z,22.00
2018-06-17T19:56:21.370Z,22.00
2018-06-17T19:58:57.084Z,22.00
2018-06-17T20:01:28.113Z,22.00
2018-06-17T20:03:58.531Z,21.90
2018-06-17T20:06:28.996Z,21.90
2018-06-17T20:08:59.413Z,21.80
2018-06-17T20:11:29.945Z,21.80
2018-06-17T20:14:00.473Z,21.90
2018-06-17T20:16:30.818Z,21.80
2018-06-17T20:19:01.308Z,21.70
2018-06-17T20:21:31.655Z,21.70
2018-06-17T20:24:02.129Z,21.60
2018-06-17T20:26:32.520Z,21.60
2018-06-17T20:29:05.143Z,21.60
2018-06-17T20:31:39.573Z,21.50
2018-06-17T20:34:15.197Z,21.50
2018-06-17T20:39:25.940Z,21.40
2018-06-17T20:42:01.650Z,21.50
2018-06-17T20:44:32.088Z,21.40
2018-06-17T20:47:02.591Z,21.40
2018-06-17T20:49:33.367Z,21.40
2018-06-17T20:52:04.202Z,21.40
2018-06-17T20:54:34.619Z,21.40
2018-06-17T20:57:05.098Z,21.40
2018-06-17T20:59:36.158Z,21.40
2018-06-17T21:02:07.420Z,21.40
2018-06-17T21:04:37.864Z,21.30
2018-06-17T21:07:08.475Z,21.30
2018-06-17T21:09:38.888Z,21.30
2018-06-17T21:12:09.751Z,21.30
2018-06-17T21:14:40.673Z,21.20
2018-06-17T21:17:11.268Z,21.20
2018-06-17T21:19:46.986Z,21.20
2018-06-17T21:24:26.561Z,21.10
2018-06-17T21:27:02.224Z,21.00
2018-06-17T21:29:33.060Z,20.80
2018-06-17T21:32:03.679Z,20.80
2018-06-17T21:34:34.280Z,20.80
2018-06-17T21:37:04.762Z,20.80
2018-06-17T21:39:35.246Z,20.70
2018-06-17T21:42:06.584Z,20.80
2018-06-17T21:44:37.581Z,20.80
2018-06-17T21:47:08.425Z,20.70
2018-06-17T21:49:38.940Z,20.70
2018-06-17T21:52:09.409Z,20.70
2018-06-17T21:54:40.563Z,20.70
2018-06-17T21:57:11.191Z,20.70
2018-06-17T21:59:41.847Z,20.70
2018-06-17T22:02:13.418Z,20.80
2018-06-17T22:04:43.875Z,20.70
2018-06-17T22:07:14.734Z,20.70
2018-06-17T22:09:50.629Z,20.70
2018-06-17T22:12:27.237Z,20.70
2018-06-17T22:15:02.845Z,20.60
2018-06-17T22:17:38.533Z,20.60
2018-06-17T22:20:09.184Z,20.60
2018-06-17T22:22:39.594Z,20.50
2018-06-17T22:25:10.095Z,20.40
2018-06-17T22:27:40.661Z,20.20
2018-06-17T22:30:11.198Z,20.20
2018-06-17T22:32:41.607Z,20.10
2018-06-17T22:35:12.097Z,20.10
2018-06-17T22:37:42.444Z,20.00
2018-06-17T22:40:12.982Z,20.00
2018-06-17T22:42:43.378Z,20.00
2018-06-17T22:45:13.865Z,20.00
2018-06-17T22:47:49.347Z,19.80
2018-06-17T22:50:19.813Z,19.80
2018-06-17T22:54:07.396Z,19.80
2018-06-17T22:56:43.041Z,19.70
2018-06-17T22:59:18.615Z,19.80
2018-06-17T23:01:54.383Z,19.80
2018-06-17T23:04:29.988Z,19.90
2018-06-17T23:07:05.865Z,19.90
2018-06-17T23:09:38.901Z,19.90
2018-06-17T23:12:10.450Z,19.90
2018-06-17T23:14:40.948Z,19.80
2018-06-17T23:17:11.527Z,19.80
2018-06-17T23:19:41.966Z,19.80
2018-06-17T23:22:12.589Z,19.80
2018-06-17T23:24:43.145Z,19.70
2018-06-17T23:27:17.060Z,19.80
2018-06-17T23:29:47.529Z,19.80
2018-06-17T23:32:18.008Z,19.80
2018-06-17T23:34:48.459Z,19.80
2018-06-17T23:37:19.553Z,19.70
2018-06-17T23:39:49.973Z,19.70
2018-06-17T23:42:20.410Z,19.70
2018-06-17T23:44:50.880Z,19.80
2018-06-17T23:47:26.458Z,19.70
2018-06-17T23:50:02.108Z,19.70
2018-06-17T23:52:37.807Z,19.70
2018-06-17T23:55:13.557Z,19.70
2018-06-17T23:57:44.033Z,19.80
